Aérodrome :
LOGIN :

S'inscrire | Disclaimer

   EN    FR    IT 

 










Légende :    VFR   VFR Marginal   IFR   IFR Intensif   IFR Très Intensif
Visi : 
Plafond : 
>= 8 km
>= 3000ft
5 à 8 km
1000 à 3000 ft
1500m à 5 km
500 à 1000 ft
800 à 1500m
200 à 500 ft
< 800m
< 200 ft
Symboles :   Orages  Brouillard  Fortes neiges  Fortes précipitations  Vent > 20 kt
SIGMETs :   Divers  Orages  Givrage  Turbulence  Onde Orograph.  Cendres Volcan.







- Altitude de l'aérodrome : 5600 ft
- Code IATA : SMV


LSZS - Samedan

DERNIER METAR :
  • 251420Z 22015KT 9999 VCSH SCT040 BKN048 06/02 Q1009 RMK R

METARs EXPIRÉS :
  • 251350Z 23015KT 9999 SCT050 BKN070 07/01 Q1009 RMK Q
  • 251320Z 22014KT 9999 SCT047 BKN060 07/01 Q1010 RMK P
  • 251250Z 22015KT 9999 BKN030 06/01 Q1010 RMK O
  • 251220Z 23017KT 9999 FEW037 BKN050 07/00 Q1010 RMK N
  • 251150Z 21013KT 9999 BKN047 07/00 Q1010 RMK M

TAF TAF LSZS
Valide du 25 à 15h jusqu'au 26 à 00h UTC


251425Z 2515/2524 22015KT 9999 SCT050 BKN060 TX07/2515Z
BECMG 2515/2518 4500 SHRA BKN012
BECMG 2518/2521 VRB03KT
ATIS : +41 81 834 93 24
Pas de NOTAMs connus pour ce terrain.



MET'MAP, la Météo Aéronautique d'un coup d'oeil ! - Copyright ORBIFLY Décembre 2007 - Disclaimer

ORBIFLY MET'MAP TEAM :

Programmation & Développement : Alexandra Zaïnal
Conception & Développement : Baudouin d'Aumeries
Co-Programmation & Développement : Marc-Olivier Méhu
Soutien technique & logistique : Manuel Goepfert

Contact : metmap@orbifly.com




SOURCES & CREDITS :

   NOAA